createdAt,value
2023-01-18T00:02:34.682Z,3.09
2023-01-18T00:05:24.082Z,3.10
2023-01-18T00:08:16.486Z,3.24
2023-01-18T00:11:06.526Z,3.11
2023-01-18T00:13:57.130Z,3.22
2023-01-18T00:16:46.403Z,3.24
2023-01-18T00:19:36.138Z,3.20
2023-01-18T00:22:25.419Z,3.25
2023-01-18T00:25:14.714Z,3.28
2023-01-18T00:28:04.021Z,3.33
2023-01-18T00:30:54.725Z,3.28
2023-01-18T00:33:45.293Z,3.26
2023-01-18T00:36:34.979Z,3.26
2023-01-18T00:39:24.516Z,3.19
2023-01-18T00:42:31.405Z,3.22
2023-01-18T00:45:21.351Z,3.16
2023-01-18T00:48:11.960Z,3.14
2023-01-18T00:51:01.215Z,3.21
2023-01-18T00:53:50.947Z,3.20
2023-01-18T00:56:40.136Z,3.10
2023-01-18T00:59:29.464Z,3.20
2023-01-18T01:02:18.808Z,3.22
2023-01-18T01:05:36.122Z,3.07
2023-01-18T01:08:25.419Z,3.13
2023-01-18T01:11:15.237Z,3.13
2023-01-18T01:14:22.228Z,3.12
2023-01-18T01:17:28.574Z,3.16
2023-01-18T01:20:37.058Z,3.12
2023-01-18T01:23:43.727Z,3.12
2023-01-18T01:26:32.918Z,3.05
2023-01-18T01:29:22.309Z,2.93
2023-01-18T01:32:11.930Z,3.02
2023-01-18T01:35:01.164Z,2.95
2023-01-18T01:37:51.842Z,2.94
2023-01-18T01:40:41.210Z,2.96
2023-01-18T01:43:43.765Z,2.90
2023-01-18T01:46:42.246Z,2.95
2023-01-18T01:49:35.028Z,3.05
2023-01-18T01:52:28.284Z,3.05
2023-01-18T01:55:23.000Z,3.00
2023-01-18T01:58:18.069Z,2.97
2023-01-18T02:01:09.334Z,3.05
2023-01-18T02:04:02.217Z,3.15
2023-01-18T02:06:51.448Z,3.15
2023-01-18T02:09:41.542Z,3.14
2023-01-18T02:12:33.083Z,3.09
2023-01-18T02:15:24.363Z,3.03
2023-01-18T02:18:25.249Z,3.07
2023-01-18T02:21:19.784Z,2.95
2023-01-18T02:25:06.843Z,3.09
2023-01-18T02:28:10.330Z,3.18
2023-01-18T02:31:08.564Z,3.12
2023-01-18T02:34:06.277Z,3.02
2023-01-18T02:37:05.648Z,3.12
2023-01-18T02:40:11.233Z,3.21
2023-01-18T02:43:23.915Z,3.08
2023-01-18T02:46:34.160Z,3.08
2023-01-18T02:49:32.200Z,3.02
2023-01-18T02:52:42.663Z,3.06
2023-01-18T02:55:40.677Z,2.95
2023-01-18T02:58:35.609Z,2.92
2023-01-18T03:01:34.400Z,2.91
2023-01-18T03:04:27.934Z,2.78
2023-01-18T03:07:25.677Z,2.82
2023-01-18T03:10:18.115Z,2.85
2023-01-18T03:13:17.039Z,2.85
2023-01-18T03:16:14.155Z,2.87
2023-01-18T03:19:28.143Z,2.79
2023-01-18T03:22:17.653Z,2.76
2023-01-18T03:25:08.787Z,2.76
2023-01-18T03:28:18.778Z,2.67
2023-01-18T03:31:30.492Z,2.67
2023-01-18T03:34:28.265Z,2.65
2023-01-18T03:37:21.990Z,2.68
2023-01-18T03:40:17.036Z,2.73
2023-01-18T03:43:16.244Z,2.76
2023-01-18T03:46:08.225Z,2.73
2023-01-18T03:48:58.453Z,2.70
2023-01-18T03:52:07.204Z,2.67
2023-01-18T03:55:04.802Z,2.66
2023-01-18T03:57:58.698Z,2.74
2023-01-18T04:00:48.078Z,2.70
2023-01-18T04:03:37.264Z,2.64
2023-01-18T04:06:27.027Z,2.67
2023-01-18T04:09:17.741Z,2.66
2023-01-18T04:12:07.512Z,2.73
2023-01-18T04:14:56.768Z,2.73
2023-01-18T04:17:45.979Z,2.68
2023-01-18T04:20:35.243Z,2.74
2023-01-18T04:23:25.014Z,2.66
2023-01-18T04:26:16.793Z,2.81
2023-01-18T04:29:06.802Z,2.67
2023-01-18T04:31:56.360Z,2.69
2023-01-18T04:34:45.825Z,2.75
2023-01-18T04:37:35.124Z,2.73
2023-01-18T04:40:24.314Z,2.82
2023-01-18T04:43:15.130Z,2.88
2023-01-18T04:46:04.733Z,2.94
2023-01-18T04:48:54.132Z,2.98
2023-01-18T04:51:44.699Z,3.04
2023-01-18T04:54:34.113Z,3.03
2023-01-18T04:57:23.391Z,3.04
2023-01-18T05:00:16.112Z,3.03
2023-01-18T05:03:05.456Z,3.00
2023-01-18T05:05:56.236Z,3.00
2023-01-18T05:08:45.478Z,3.06
2023-01-18T05:11:34.753Z,2.91
2023-01-18T05:14:24.048Z,2.88
2023-01-18T05:17:14.620Z,2.82
2023-01-18T05:20:06.496Z,2.71
2023-01-18T05:22:55.919Z,2.87
2023-01-18T05:25:45.630Z,2.82
2023-01-18T05:28:34.855Z,2.87
2023-01-18T05:31:24.184Z,2.93
2023-01-18T05:34:14.830Z,2.93
2023-01-18T05:37:04.854Z,2.91
2023-01-18T05:39:54.056Z,3.02
2023-01-18T05:42:43.612Z,3.05
2023-01-18T05:45:33.005Z,3.15
2023-01-18T05:48:22.876Z,3.09
2023-01-18T05:51:14.793Z,3.13
2023-01-18T05:54:04.135Z,3.19
2023-01-18T05:56:53.396Z,3.16
2023-01-18T05:59:42.816Z,3.22
2023-01-18T06:02:32.093Z,3.16
2023-01-18T06:05:22.136Z,3.14
2023-01-18T06:08:12.828Z,3.13
2023-01-18T06:11:02.335Z,3.12
2023-01-18T06:13:52.438Z,3.09
2023-01-18T06:16:41.750Z,2.96
2023-01-18T06:19:31.106Z,3.04
2023-01-18T06:22:20.487Z,3.00
2023-01-18T06:25:11.539Z,3.01
2023-01-18T06:28:01.066Z,3.01
2023-01-18T06:30:53.305Z,2.86
2023-01-18T06:33:42.658Z,2.91
2023-01-18T06:36:33.063Z,2.84
2023-01-18T06:39:22.383Z,2.86
2023-01-18T06:42:13.058Z,2.88
2023-01-18T06:45:02.328Z,2.80
2023-01-18T06:47:52.076Z,2.87
2023-01-18T06:50:41.399Z,2.88
2023-01-18T06:53:30.674Z,2.75
2023-01-18T06:56:20.006Z,2.89
2023-01-18T06:59:10.749Z,2.89
2023-01-18T07:02:00.321Z,2.86
2023-01-18T07:04:49.710Z,2.84
2023-01-18T07:07:39.138Z,2.87
2023-01-18T07:10:28.437Z,2.86
2023-01-18T07:13:17.802Z,2.76
2023-01-18T07:16:13.284Z,2.86
2023-01-18T07:19:04.136Z,2.92
2023-01-18T07:21:54.621Z,2.73
2023-01-18T07:24:43.865Z,2.82
2023-01-18T07:27:33.253Z,2.83
2023-01-18T07:30:22.741Z,2.95
2023-01-18T07:33:13.883Z,2.99
2023-01-18T07:36:05.140Z,3.04
2023-01-18T07:38:54.393Z,2.98
2023-01-18T07:41:43.769Z,3.04
2023-01-18T07:44:33.014Z,2.88
2023-01-18T07:47:22.313Z,2.95
2023-01-18T07:50:14.430Z,2.93
2023-01-18T07:53:06.411Z,2.97
2023-01-18T07:55:59.673Z,2.98
2023-01-18T07:58:49.099Z,3.02
2023-01-18T08:01:38.591Z,3.12
2023-01-18T08:04:27.992Z,3.06
2023-01-18T08:07:18.922Z,3.07
2023-01-18T08:10:08.742Z,3.19
2023-01-18T08:12:58.605Z,3.15
2023-01-18T08:15:48.067Z,3.23
2023-01-18T08:18:37.400Z,3.18
2023-01-18T08:21:26.673Z,3.21
2023-01-18T08:24:18.019Z,3.17
2023-01-18T08:27:07.215Z,3.25
2023-01-18T08:29:57.256Z,3.21
2023-01-18T08:32:46.481Z,3.28
2023-01-18T08:35:41.123Z,3.28
2023-01-18T08:38:30.409Z,3.29
2023-01-18T08:41:22.748Z,3.30
2023-01-18T08:44:12.411Z,3.36
2023-01-18T08:47:01.653Z,3.30
2023-01-18T08:49:50.868Z,3.42
2023-01-18T08:52:40.268Z,3.43
2023-01-18T08:55:30.814Z,3.49
2023-01-18T08:58:21.526Z,3.59
2023-01-18T09:01:11.627Z,3.68
2023-01-18T09:04:00.881Z,3.72
2023-01-18T09:06:51.557Z,3.77
2023-01-18T09:09:40.854Z,3.87
2023-01-18T09:12:30.067Z,4.01
2023-01-18T09:15:20.811Z,4.00
2023-01-18T09:18:10.279Z,4.16
2023-01-18T09:20:59.841Z,4.18
2023-01-18T09:23:51.007Z,4.20
2023-01-18T09:26:41.064Z,4.24
2023-01-18T09:29:31.207Z,4.36
2023-01-18T09:32:22.216Z,4.35
2023-01-18T09:35:11.937Z,4.25
2023-01-18T09:38:01.185Z,4.19
2023-01-18T09:40:53.071Z,4.31
2023-01-18T09:43:50.083Z,4.33
2023-01-18T09:46:42.558Z,4.21
2023-01-18T09:49:42.097Z,4.05
2023-01-18T09:52:42.636Z,4.04
2023-01-18T09:55:47.295Z,3.91
2023-01-18T09:58:48.592Z,3.93
2023-01-18T10:01:39.020Z,3.83
2023-01-18T10:04:37.594Z,3.89
2023-01-18T10:07:30.723Z,3.99
2023-01-18T10:10:20.631Z,3.93
2023-01-18T10:13:40.451Z,3.90
2023-01-18T10:16:30.348Z,3.84
2023-01-18T10:19:26.228Z,3.91
2023-01-18T10:22:24.157Z,3.93
2023-01-18T10:25:20.083Z,4.05
2023-01-18T10:28:39.670Z,4.10
2023-01-18T10:31:44.364Z,4.14
2023-01-18T10:34:36.228Z,4.38
2023-01-18T10:37:39.005Z,4.36
2023-01-18T10:40:28.329Z,4.50
2023-01-18T10:43:20.638Z,4.53
2023-01-18T10:46:16.816Z,4.34
2023-01-18T10:49:08.427Z,4.64
2023-01-18T10:51:57.715Z,4.63
2023-01-18T10:54:56.116Z,4.69
2023-01-18T10:57:50.269Z,4.72
2023-01-18T11:00:40.333Z,4.95
2023-01-18T11:03:40.109Z,5.08
2023-01-18T11:06:29.854Z,5.25
2023-01-18T11:09:42.959Z,5.37
2023-01-18T11:12:43.551Z,5.34
2023-01-18T11:15:33.028Z,5.26
2023-01-18T11:18:22.360Z,5.27
2023-01-18T11:21:12.643Z,4.99
2023-01-18T11:24:09.786Z,4.95
2023-01-18T11:27:02.314Z,5.16
2023-01-18T11:29:53.675Z,5.27
2023-01-18T11:32:42.885Z,5.33
2023-01-18T11:35:36.595Z,5.40
2023-01-18T11:38:32.535Z,5.36
2023-01-18T11:41:23.584Z,5.50
2023-01-18T11:44:22.713Z,5.58
2023-01-18T11:47:22.995Z,5.50
2023-01-18T11:50:28.492Z,5.54
2023-01-18T11:53:32.056Z,5.43
2023-01-18T11:56:33.171Z,5.07
2023-01-18T11:59:29.646Z,5.42
2023-01-18T12:02:58.927Z,5.20
2023-01-18T12:05:55.869Z,5.27
2023-01-18T12:09:05.019Z,5.38
2023-01-18T12:12:19.451Z,5.37
2023-01-18T12:15:43.247Z,5.24
2023-01-18T12:19:07.981Z,5.23
2023-01-18T12:22:32.365Z,5.18
2023-01-18T12:26:11.882Z,5.22
2023-01-18T12:29:56.746Z,5.02
2023-01-18T12:33:17.548Z,5.24
2023-01-18T12:36:31.577Z,5.18
2023-01-18T12:39:38.392Z,5.31
2023-01-18T12:42:48.124Z,5.40
2023-01-18T12:45:41.326Z,5.42
2023-01-18T12:48:36.117Z,5.39
2023-01-18T12:51:31.515Z,5.40
2023-01-18T12:54:31.130Z,5.51
2023-01-18T12:57:24.083Z,5.50
2023-01-18T13:00:21.235Z,5.25
2023-01-18T13:03:15.434Z,5.45
2023-01-18T13:06:05.596Z,5.61
2023-01-18T13:09:02.422Z,5.63
2023-01-18T13:11:52.081Z,5.79
2023-01-18T13:14:48.886Z,5.72
2023-01-18T13:17:47.014Z,5.81
2023-01-18T13:20:50.793Z,5.61
2023-01-18T13:23:55.592Z,5.82
2023-01-18T13:26:46.892Z,5.81
2023-01-18T13:29:36.711Z,5.92
2023-01-18T13:32:32.058Z,5.84
2023-01-18T13:35:28.873Z,5.90
2023-01-18T13:38:27.490Z,5.93
2023-01-18T13:41:26.353Z,5.89
2023-01-18T13:44:32.597Z,6.01
2023-01-18T13:47:54.567Z,6.00
2023-01-18T13:50:48.372Z,5.99
2023-01-18T13:53:51.201Z,5.98
2023-01-18T13:56:41.108Z,6.09
2023-01-18T13:59:34.955Z,6.11
2023-01-18T14:02:32.327Z,6.06
2023-01-18T14:05:26.024Z,5.74
2023-01-18T14:08:22.092Z,6.00
2023-01-18T14:11:25.126Z,5.97
2023-01-18T14:14:35.484Z,5.89
2023-01-18T14:17:26.554Z,5.92
2023-01-18T14:20:47.209Z,6.07
2023-01-18T14:24:15.185Z,6.13
2023-01-18T14:27:06.416Z,6.07
2023-01-18T14:30:03.978Z,6.25
2023-01-18T14:33:00.804Z,6.16
2023-01-18T14:35:54.499Z,6.41
2023-01-18T14:38:44.069Z,6.35
2023-01-18T14:41:34.456Z,6.27
2023-01-18T14:44:27.220Z,6.48
2023-01-18T14:47:24.297Z,6.48
2023-01-18T14:50:20.132Z,6.43
2023-01-18T14:53:16.955Z,6.57
2023-01-18T14:56:10.797Z,6.54
2023-01-18T14:59:03.171Z,6.59
2023-01-18T15:01:55.375Z,6.56
2023-01-18T15:04:47.523Z,6.45
2023-01-18T15:07:39.306Z,6.50
2023-01-18T15:10:28.839Z,6.53
2023-01-18T15:13:20.276Z,6.39
2023-01-18T15:16:09.869Z,6.45
2023-01-18T15:19:01.969Z,6.57
2023-01-18T15:21:53.190Z,6.56
2023-01-18T15:24:44.774Z,6.54
2023-01-18T15:27:34.124Z,6.54
2023-01-18T15:30:26.097Z,6.36
2023-01-18T15:33:15.801Z,6.52
2023-01-18T15:36:05.769Z,6.56
2023-01-18T15:38:56.385Z,6.46
2023-01-18T15:41:45.930Z,6.38
2023-01-18T15:44:43.873Z,6.43
2023-01-18T15:47:36.985Z,6.51
2023-01-18T15:50:31.012Z,6.52
2023-01-18T15:53:25.243Z,6.48
2023-01-18T15:56:24.264Z,6.38
2023-01-18T15:59:13.753Z,6.37
2023-01-18T16:02:18.596Z,6.36
2023-01-18T16:05:22.972Z,6.38
2023-01-18T16:08:23.406Z,6.34
2023-01-18T16:11:30.905Z,6.22
2023-01-18T16:14:35.182Z,6.16
2023-01-18T16:17:27.313Z,6.16
2023-01-18T16:20:18.215Z,6.15
2023-01-18T16:23:11.147Z,6.09
2023-01-18T16:26:05.523Z,6.01
2023-01-18T16:29:05.357Z,6.04
2023-01-18T16:32:15.458Z,5.99
2023-01-18T16:35:15.140Z,5.87
2023-01-18T16:38:05.158Z,5.81
2023-01-18T16:40:55.436Z,5.88
2023-01-18T16:43:45.077Z,5.77
2023-01-18T16:46:36.931Z,5.81
2023-01-18T16:49:27.265Z,5.59
2023-01-18T16:52:17.209Z,5.61
2023-01-18T16:55:08.002Z,5.52
2023-01-18T16:57:57.561Z,5.48
2023-01-18T17:00:57.489Z,5.42
2023-01-18T17:03:50.186Z,5.31
2023-01-18T17:06:42.611Z,5.27
2023-01-18T17:09:40.374Z,5.20
2023-01-18T17:12:33.569Z,5.22
2023-01-18T17:15:23.163Z,5.25
2023-01-18T17:18:16.623Z,5.00
2023-01-18T17:21:07.557Z,5.18
2023-01-18T17:23:56.882Z,5.20
2023-01-18T17:26:46.262Z,5.22
2023-01-18T17:29:35.601Z,5.17
2023-01-18T17:32:25.239Z,5.06
2023-01-18T17:35:16.236Z,5.12
2023-01-18T17:38:11.298Z,5.00
2023-01-18T17:41:01.018Z,5.00
2023-01-18T17:43:50.678Z,4.91
2023-01-18T17:46:40.258Z,4.80
2023-01-18T17:49:29.623Z,4.81
2023-01-18T17:52:18.918Z,4.80
2023-01-18T17:55:15.249Z,4.69
2023-01-18T17:58:04.829Z,4.68
2023-01-18T18:00:55.451Z,4.52
2023-01-18T18:03:48.492Z,4.68
2023-01-18T18:06:40.507Z,4.63
2023-01-18T18:09:40.666Z,4.56
2023-01-18T18:12:33.609Z,4.56
2023-01-18T18:15:23.606Z,4.52
2023-01-18T18:18:22.708Z,4.47
2023-01-18T18:21:12.940Z,4.41
2023-01-18T18:24:02.282Z,4.35
2023-01-18T18:26:51.890Z,4.38
2023-01-18T18:29:42.770Z,4.34
2023-01-18T18:32:31.979Z,4.32
2023-01-18T18:35:26.274Z,4.34
2023-01-18T18:38:18.905Z,4.29
2023-01-18T18:41:08.994Z,4.23
2023-01-18T18:43:58.553Z,4.24
2023-01-18T18:46:49.245Z,4.27
2023-01-18T18:49:38.727Z,4.24
2023-01-18T18:52:28.046Z,4.21
2023-01-18T18:55:19.078Z,4.25
2023-01-18T18:58:08.428Z,4.15
2023-01-18T19:00:57.857Z,4.18
2023-01-18T19:03:49.466Z,4.12
2023-01-18T19:06:39.365Z,4.18
2023-01-18T19:09:28.724Z,4.12
2023-01-18T19:12:18.219Z,4.02
2023-01-18T19:15:08.902Z,4.17
2023-01-18T19:17:59.264Z,4.15
2023-01-18T19:20:52.210Z,4.13
2023-01-18T19:23:41.495Z,4.18
2023-01-18T19:26:30.811Z,4.04
2023-01-18T19:29:20.129Z,4.16
2023-01-18T19:32:09.303Z,4.08
2023-01-18T19:34:58.559Z,3.98
2023-01-18T19:37:49.990Z,3.96
2023-01-18T19:40:39.693Z,3.88
2023-01-18T19:43:29.015Z,3.89
2023-01-18T19:46:20.212Z,3.95
2023-01-18T19:49:09.712Z,3.99
2023-01-18T19:51:59.038Z,4.02
2023-01-18T19:54:49.753Z,3.91
2023-01-18T19:57:39.065Z,3.96
2023-01-18T20:00:29.043Z,3.98
2023-01-18T20:03:18.356Z,4.00
2023-01-18T20:06:10.844Z,3.96
2023-01-18T20:09:00.298Z,4.01
2023-01-18T20:11:51.033Z,3.93
2023-01-18T20:14:42.654Z,3.93
2023-01-18T20:17:32.061Z,3.96
2023-01-18T20:20:31.756Z,3.96
2023-01-18T20:23:22.454Z,3.86
2023-01-18T20:26:12.415Z,3.87
2023-01-18T20:29:04.084Z,3.82
2023-01-18T20:31:55.181Z,3.71
2023-01-18T20:34:47.160Z,3.65
2023-01-18T20:37:36.824Z,3.60
2023-01-18T20:40:26.196Z,3.53
2023-01-18T20:43:15.515Z,3.44
2023-01-18T20:46:08.606Z,3.39
2023-01-18T20:48:57.682Z,3.36
2023-01-18T20:51:47.310Z,3.41
2023-01-18T20:54:36.890Z,3.30
2023-01-18T20:57:30.366Z,3.22
2023-01-18T21:00:21.101Z,3.17
2023-01-18T21:03:17.943Z,3.23
2023-01-18T21:06:09.102Z,3.25
2023-01-18T21:09:01.145Z,3.28
2023-01-18T21:11:50.479Z,3.26
2023-01-18T21:14:39.699Z,3.31
2023-01-18T21:17:29.116Z,3.35
2023-01-18T21:20:20.131Z,3.32
2023-01-18T21:23:10.051Z,3.29
2023-01-18T21:26:01.696Z,3.18
2023-01-18T21:28:50.959Z,3.14
2023-01-18T21:31:41.127Z,3.15
2023-01-18T21:34:30.632Z,3.14
2023-01-18T21:37:21.258Z,3.16
2023-01-18T21:40:12.405Z,3.17
2023-01-18T21:43:19.373Z,3.26
2023-01-18T21:46:12.159Z,3.20
2023-01-18T21:49:04.137Z,3.25
2023-01-18T21:52:10.378Z,3.22
2023-01-18T21:55:01.049Z,3.35
2023-01-18T21:58:10.511Z,3.32
2023-01-18T22:01:00.676Z,3.41
2023-01-18T22:04:08.783Z,3.47
2023-01-18T22:07:00.298Z,3.37
2023-01-18T22:10:03.077Z,3.44
2023-01-18T22:12:55.227Z,3.48
2023-01-18T22:15:44.415Z,3.50
2023-01-18T22:18:33.641Z,3.53
2023-01-18T22:21:25.366Z,3.49
2023-01-18T22:24:15.943Z,3.38
2023-01-18T22:27:05.800Z,3.41
2023-01-18T22:29:56.498Z,3.32
2023-01-18T22:32:45.894Z,3.31
2023-01-18T22:35:35.152Z,3.35
2023-01-18T22:38:24.366Z,3.33
2023-01-18T22:41:16.049Z,3.26
2023-01-18T22:44:05.397Z,3.28
2023-01-18T22:46:56.133Z,3.15
2023-01-18T22:49:45.343Z,3.28
2023-01-18T22:52:34.598Z,3.28
2023-01-18T22:55:23.807Z,3.24
2023-01-18T22:58:13.070Z,3.15
2023-01-18T23:01:02.738Z,3.25
2023-01-18T23:03:54.256Z,3.27
2023-01-18T23:06:45.937Z,3.32
2023-01-18T23:09:35.247Z,3.32
2023-01-18T23:12:24.506Z,3.30
2023-01-18T23:15:31.769Z,3.30
2023-01-18T23:18:20.976Z,3.41
2023-01-18T23:21:12.042Z,3.41
2023-01-18T23:24:01.296Z,3.42
2023-01-18T23:26:50.825Z,3.47
2023-01-18T23:29:40.483Z,3.47
2023-01-18T23:32:30.675Z,3.48
2023-01-18T23:35:20.055Z,3.46
2023-01-18T23:38:10.770Z,3.48
2023-01-18T23:41:17.087Z,3.42
2023-01-18T23:44:23.934Z,3.48
2023-01-18T23:47:30.160Z,3.49
2023-01-18T23:50:37.078Z,3.55
2023-01-18T23:53:44.748Z,3.46
2023-01-18T23:56:35.246Z,3.41
2023-01-18T23:59:24.420Z,3.46
